Time;durP1;ratioP1;P1;durP2;ratioP2;P2;SDS_P1;SDS_P2;PMS_P1;PMS_P2;Temp;Humidity;BMP_temperature;BMP_pressure;BME280_temperature;BME280_humidity;BME280_pressure;Samples;Min_cycle;Max_cycle;Signal;HPM_P1;HPM_P2
2023/07/18 00:01:17;;;;;;;0.20;0.20;;;16.20;99.90;;;;;;5007905;28;20041;-80
2023/07/18 00:03:43;;;;;;;0.20;0.20;;;16.20;99.90;;;;;;5010335;28;20038;-81
2023/07/18 00:06:09;;;;;;;0.10;0.10;;;16.20;99.90;;;;;;5009798;28;20050;-81
2023/07/18 00:08:34;;;;;;;0.17;0.17;;;16.20;99.90;;;;;;5008452;28;20034;-81
2023/07/18 00:11:00;;;;;;;0.10;0.10;;;16.20;99.90;;;;;;5008632;28;20050;-81
2023/07/18 00:13:26;;;;;;;0.20;0.20;;;16.20;99.90;;;;;;5002505;28;20081;-81
2023/07/18 00:15:52;;;;;;;0.20;0.20;;;16.10;99.90;;;;;;5006481;28;20045;-81
2023/07/18 00:18:21;;;;;;;0.20;0.20;;;16.10;99.90;;;;;;5008743;28;20034;-81
2023/07/18 00:20:47;;;;;;;0.20;0.20;;;16.10;99.90;;;;;;5004651;28;20497;-80
2023/07/18 00:23:12;;;;;;;0.20;0.20;;;16.00;99.90;;;;;;5008335;28;20042;-80
2023/07/18 00:25:38;;;;;;;0.20;0.20;;;16.00;99.90;;;;;;5003909;28;20046;-81
2023/07/18 00:28:04;;;;;;;0.20;0.20;;;16.00;99.90;;;;;;5004220;28;20096;-81
2023/07/18 00:30:30;;;;;;;0.20;0.20;;;16.10;99.90;;;;;;5007026;28;20034;-81
2023/07/18 00:32:59;;;;;;;0.20;0.20;;;16.10;99.90;;;;;;5007040;28;20613;-80
2023/07/18 00:35:26;;;;;;;0.20;0.20;;;16.00;99.90;;;;;;5010048;28;20066;-80
2023/07/18 00:37:52;;;;;;;0.20;0.20;;;16.10;99.90;;;;;;5012096;28;20453;-81
2023/07/18 00:40:18;;;;;;;0.20;0.20;;;16.00;99.90;;;;;;5008825;28;20046;-81
2023/07/18 00:42:47;;;;;;;0.13;0.13;;;16.00;99.90;;;;;;5006471;28;20046;-80
2023/07/18 00:45:13;;;;;;;0.10;0.10;;;15.90;99.90;;;;;;5006039;28;20054;-80
2023/07/18 00:47:42;;;;;;;0.20;0.20;;;15.90;99.90;;;;;;5006991;28;20486;-80
2023/07/18 00:50:18;;;;;;;0.17;0.17;;;16.00;99.90;;;;;;5005803;28;20439;-81
2023/07/18 00:52:52;;;;;;;0.20;0.20;;;16.00;99.90;;;;;;5008463;28;20045;-81
2023/07/18 00:55:18;;;;;;;0.20;0.20;;;16.00;99.90;;;;;;5007455;28;20397;-81
2023/07/18 00:57:46;;;;;;;0.20;0.20;;;15.90;99.90;;;;;;5006586;28;20042;-80
2023/07/18 01:00:14;;;;;;;0.20;0.20;;;15.90;99.90;;;;;;5002744;28;20112;-80
2023/07/18 01:02:42;;;;;;;0.20;0.20;;;15.90;99.90;;;;;;5008898;28;20157;-81
2023/07/18 01:05:09;;;;;;;0.20;0.20;;;15.90;99.90;;;;;;5002976;28;20053;-81
2023/07/18 01:07:37;;;;;;;0.20;0.20;;;15.90;99.90;;;;;;5001453;28;20511;-80
2023/07/18 01:10:25;;;;;;;0.20;0.20;;;15.90;99.90;;;;;;5001799;28;20054;-81
2023/07/18 01:12:55;;;;;;;0.20;0.20;;;15.90;99.90;;;;;;5005001;28;20663;-81
2023/07/18 01:15:22;;;;;;;0.10;0.10;;;15.80;99.90;;;;;;5008037;28;20050;-81
2023/07/18 01:17:49;;;;;;;0.20;0.20;;;15.90;99.90;;;;;;5004213;28;20537;-80
2023/07/18 01:20:28;;;;;;;0.20;0.20;;;15.80;99.90;;;;;;5004034;28;20045;-81
2023/07/18 01:22:56;;;;;;;0.20;0.20;;;15.80;99.90;;;;;;5005729;28;20053;-82
2023/07/18 01:25:22;;;;;;;0.20;0.20;;;15.80;99.90;;;;;;5004637;28;20145;-80
2023/07/18 01:27:51;;;;;;;0.20;0.20;;;15.80;99.90;;;;;;5008691;28;20068;-79
2023/07/18 01:30:20;;;;;;;0.10;0.10;;;15.80;99.90;;;;;;5001380;28;20042;-81
2023/07/18 01:32:48;;;;;;;0.20;0.20;;;15.70;99.90;;;;;;5011751;28;20124;-81
2023/07/18 01:35:15;;;;;;;0.15;0.15;;;15.70;99.90;;;;;;5004224;28;20050;-80
2023/07/18 01:37:44;;;;;;;0.10;0.10;;;15.70;99.90;;;;;;5006164;28;20038;-81
2023/07/18 01:40:12;;;;;;;0.20;0.20;;;15.70;99.90;;;;;;5007555;28;20103;-81
2023/07/18 01:42:39;;;;;;;0.10;0.10;;;15.70;99.90;;;;;;5007519;28;20045;-81
2023/07/18 01:45:06;;;;;;;0.20;0.20;;;15.70;99.90;;;;;;5002904;28;20053;-80
2023/07/18 01:47:31;;;;;;;0.20;0.20;;;15.60;99.90;;;;;;5005101;28;20120;-81
2023/07/18 01:49:59;;;;;;;0.20;0.20;;;15.60;99.90;;;;;;5005696;28;20080;-81
2023/07/18 01:52:27;;;;;;;0.15;0.15;;;15.60;99.90;;;;;;5006520;28;20084;-82
2023/07/18 01:54:58;;;;;;;0.20;0.20;;;15.60;99.90;;;;;;5004864;28;20050;-81
2023/07/18 01:57:31;;;;;;;0.20;0.20;;;15.60;99.90;;;;;;5005102;28;20040;-81
2023/07/18 02:00:00;;;;;;;0.10;0.10;;;15.50;99.90;;;;;;4998197;28;20058;-81
2023/07/18 02:02:29;;;;;;;0.20;0.20;;;15.50;99.90;;;;;;5000491;28;20049;-81
2023/07/18 02:04:58;;;;;;;0.20;0.20;;;15.50;99.90;;;;;;4998057;28;20223;-80
2023/07/18 02:07:25;;;;;;;0.20;0.20;;;15.50;99.90;;;;;;5004333;28;20052;-81
2023/07/18 02:09:51;;;;;;;0.10;0.10;;;15.50;99.90;;;;;;5006580;28;20058;-81
2023/07/18 02:12:17;;;;;;;0.20;0.20;;;15.50;99.90;;;;;;5008938;28;20034;-80
2023/07/18 02:14:43;;;;;;;0.10;0.10;;;15.50;99.90;;;;;;5005088;28;20478;-81
2023/07/18 02:17:09;;;;;;;0.20;0.20;;;15.60;99.90;;;;;;5003642;28;20033;-81
2023/07/18 02:19:35;;;;;;;0.10;0.10;;;15.50;99.90;;;;;;5007164;28;20045;-81
2023/07/18 02:22:02;;;;;;;0.15;0.15;;;15.50;99.90;;;;;;5005578;28;20052;-81
2023/07/18 02:24:28;;;;;;;0.20;0.20;;;15.60;99.90;;;;;;5005082;28;20054;-81
2023/07/18 02:26:56;;;;;;;0.13;0.13;;;15.50;99.90;;;;;;5006755;28;20498;-81
2023/07/18 02:29:22;;;;;;;0.20;0.20;;;15.60;99.90;;;;;;5002845;28;20486;-81
2023/07/18 02:31:48;;;;;;;0.13;0.13;;;15.60;99.90;;;;;;5007946;28;20044;-81
2023/07/18 02:34:14;;;;;;;0.20;0.20;;;15.50;99.90;;;;;;5004463;28;20037;-80
2023/07/18 02:36:40;;;;;;;0.20;0.20;;;15.60;99.90;;;;;;5004007;28;20048;-81
2023/07/18 02:39:08;;;;;;;0.17;0.17;;;15.50;99.90;;;;;;5006454;28;20077;-81
2023/07/18 02:41:37;;;;;;;0.20;0.20;;;15.50;99.90;;;;;;5006204;28;20046;-81
2023/07/18 02:44:04;;;;;;;0.20;0.20;;;15.50;99.90;;;;;;5005055;28;20033;-81
2023/07/18 02:46:30;;;;;;;0.20;0.20;;;15.50;99.90;;;;;;5000295;28;20076;-81
2023/07/18 02:48:56;;;;;;;0.20;0.20;;;15.50;99.90;;;;;;5004801;28;20201;-80
2023/07/18 02:51:21;;;;;;;0.20;0.20;;;15.50;99.90;;;;;;5006233;28;20552;-81
2023/07/18 02:53:49;;;;;;;0.20;0.20;;;15.50;99.90;;;;;;5005974;28;20389;-80
2023/07/18 02:56:16;;;;;;;0.20;0.20;;;15.50;99.90;;;;;;5003909;28;20049;-81
2023/07/18 02:58:42;;;;;;;0.15;0.15;;;15.50;99.90;;;;;;5010296;28;20061;-81
2023/07/18 03:01:08;;;;;;;0.20;0.20;;;15.50;99.90;;;;;;5008786;28;20038;-81
2023/07/18 03:03:40;;;;;;;0.20;0.20;;;15.50;99.90;;;;;;5012381;28;20042;-81
2023/07/18 03:06:07;;;;;;;0.20;0.20;;;15.50;99.90;;;;;;5006873;28;20046;-80
2023/07/18 03:08:33;;;;;;;0.10;0.10;;;15.50;99.90;;;;;;5002088;28;20414;-81
2023/07/18 03:11:05;;;;;;;0.20;0.20;;;15.50;99.90;;;;;;5009195;28;20088;-83
2023/07/18 03:13:31;;;;;;;0.10;0.10;;;15.50;99.90;;;;;;5006183;28;20069;-81
2023/07/18 03:15:57;;;;;;;0.17;0.17;;;15.50;99.90;;;;;;5010347;28;20054;-82
2023/07/18 03:18:23;;;;;;;0.20;0.20;;;15.50;99.90;;;;;;5009515;28;20045;-81
2023/07/18 03:20:49;;;;;;;0.20;0.20;;;15.40;99.90;;;;;;5007720;28;20433;-81
2023/07/18 03:23:15;;;;;;;0.20;0.20;;;15.40;99.90;;;;;;5009889;28;20129;-81
2023/07/18 03:25:41;;;;;;;0.20;0.20;;;15.40;99.90;;;;;;5009552;28;20042;-80
2023/07/18 03:28:09;;;;;;;0.20;0.20;;;15.30;99.90;;;;;;5008829;28;20038;-81
2023/07/18 03:30:36;;;;;;;0.20;0.20;;;15.30;99.90;;;;;;5009733;28;20080;-81
2023/07/18 03:33:01;;;;;;;0.20;0.20;;;15.30;99.90;;;;;;5004637;28;20045;-81
2023/07/18 03:35:28;;;;;;;0.20;0.20;;;15.30;99.90;;;;;;5010158;28;20482;-81
2023/07/18 03:37:53;;;;;;;0.20;0.20;;;15.30;99.90;;;;;;5002034;28;20053;-81
2023/07/18 03:40:19;;;;;;;0.20;0.20;;;15.40;99.90;;;;;;5008579;28;20042;-81
2023/07/18 03:42:45;;;;;;;0.10;0.10;;;15.40;99.90;;;;;;5006369;28;20034;-81
2023/07/18 03:45:13;;;;;;;0.20;0.20;;;15.30;99.90;;;;;;5000692;28;20073;-81
2023/07/18 03:47:39;;;;;;;0.20;0.20;;;15.30;99.90;;;;;;5004784;28;20449;-81
2023/07/18 03:50:07;;;;;;;0.20;0.20;;;15.30;99.90;;;;;;5009132;28;20128;-81
2023/07/18 03:52:33;;;;;;;0.10;0.10;;;15.40;99.90;;;;;;5009927;28;20091;-82
2023/07/18 03:54:59;;;;;;;0.20;0.20;;;15.30;99.90;;;;;;5007937;28;20045;-81
2023/07/18 03:57:27;;;;;;;0.20;0.20;;;15.40;99.90;;;;;;5008230;28;20045;-81
2023/07/18 03:59:52;;;;;;;0.20;0.20;;;15.40;99.90;;;;;;5007492;28;20068;-80
2023/07/18 04:02:18;;;;;;;0.20;0.20;;;15.30;99.90;;;;;;4991309;28;20045;-80
2023/07/18 04:04:44;;;;;;;0.20;0.20;;;15.40;99.90;;;;;;5008308;28;20394;-81
2023/07/18 04:07:09;;;;;;;0.10;0.10;;;15.30;99.90;;;;;;4989165;28;20042;-81
2023/07/18 04:09:35;;;;;;;0.20;0.20;;;15.40;99.90;;;;;;4991985;28;20188;-81
2023/07/18 04:12:01;;;;;;;0.20;0.20;;;15.40;99.90;;;;;;4994164;28;20042;-81
2023/07/18 04:14:26;;;;;;;0.20;0.20;;;15.40;99.90;;;;;;4987774;28;20041;-81
2023/07/18 04:16:52;;;;;;;0.20;0.20;;;15.40;99.90;;;;;;4990272;28;20049;-81
2023/07/18 04:19:19;;;;;;;0.20;0.20;;;15.40;99.90;;;;;;5012608;28;20041;-80
2023/07/18 04:21:45;;;;;;;0.20;0.20;;;15.40;99.90;;;;;;4992282;28;20042;-81
2023/07/18 04:24:11;;;;;;;0.10;0.10;;;15.40;99.90;;;;;;5010049;28;20502;-81
2023/07/18 04:26:37;;;;;;;0.10;0.10;;;15.50;99.90;;;;;;5008109;28;20037;-81
2023/07/18 04:29:06;;;;;;;0.20;0.20;;;15.50;99.90;;;;;;4988399;28;20177;-81
2023/07/18 04:31:32;;;;;;;0.20;0.20;;;15.40;99.90;;;;;;4993312;28;20045;-80
2023/07/18 04:33:59;;;;;;;0.20;0.20;;;15.50;99.90;;;;;;5003102;28;20038;-81
2023/07/18 04:36:25;;;;;;;0.20;0.20;;;15.50;99.90;;;;;;4991078;28;20030;-81
2023/07/18 04:38:50;;;;;;;0.17;0.17;;;15.50;99.90;;;;;;4991884;28;20045;-81
2023/07/18 04:41:16;;;;;;;0.20;0.20;;;15.50;99.90;;;;;;4991592;28;20532;-81
2023/07/18 04:43:42;;;;;;;0.20;0.20;;;15.60;99.90;;;;;;5005307;28;20125;-81
2023/07/18 04:46:10;;;;;;;0.20;0.20;;;15.60;99.90;;;;;;4987760;28;20537;-80
2023/07/18 04:48:36;;;;;;;0.20;0.20;;;15.60;99.90;;;;;;4991761;28;20513;-82
2023/07/18 04:51:02;;;;;;;0.10;0.10;;;15.60;99.90;;;;;;4990555;28;20463;-81
2023/07/18 04:53:31;;;;;;;0.20;0.20;;;15.60;99.90;;;;;;4995102;28;20046;-81
2023/07/18 04:55:57;;;;;;;0.20;0.20;;;15.60;99.90;;;;;;4988702;28;20038;-81
2023/07/18 04:58:27;;;;;;;0.20;0.20;;;15.70;99.90;;;;;;5005564;28;20042;-81
2023/07/18 05:00:59;;;;;;;0.13;0.13;;;15.70;99.90;;;;;;4983269;28;20502;-81
2023/07/18 05:03:26;;;;;;;0.10;0.10;;;15.80;99.90;;;;;;4987131;28;20037;-81
2023/07/18 05:05:52;;;;;;;0.20;0.20;;;15.80;99.90;;;;;;4990830;28;20070;-81
2023/07/18 05:08:18;;;;;;;0.13;0.13;;;15.80;99.90;;;;;;5008711;28;20046;-81
2023/07/18 05:10:44;;;;;;;0.10;0.10;;;15.80;99.90;;;;;;5005124;28;20034;-81
2023/07/18 05:13:10;;;;;;;0.10;0.10;;;15.90;99.90;;;;;;5006657;28;20050;-81
2023/07/18 05:15:36;;;;;;;0.20;0.20;;;15.90;99.90;;;;;;4997311;28;20073;-81
2023/07/18 05:18:02;;;;;;;0.20;0.20;;;15.90;99.90;;;;;;4986250;28;20056;-82
2023/07/18 05:20:28;;;;;;;0.20;0.20;;;15.90;99.90;;;;;;4986840;28;20125;-81
2023/07/18 05:22:54;;;;;;;0.20;0.20;;;16.00;99.90;;;;;;4978230;23;20151;-81
2023/07/18 05:25:20;;;;;;;0.10;0.10;;;16.00;99.90;;;;;;4964409;28;20470;-81
2023/07/18 05:27:45;;;;;;;0.20;0.20;;;16.00;99.90;;;;;;4960722;28;20656;-81
2023/07/18 05:30:16;;;;;;;0.10;0.10;;;16.00;99.90;;;;;;4945261;28;20562;-81
2023/07/18 05:32:43;;;;;;;0.10;0.10;;;16.10;99.90;;;;;;4946591;28;20527;-80
2023/07/18 05:35:11;;;;;;;0.20;0.20;;;16.10;99.90;;;;;;4947933;28;20500;-81
2023/07/18 05:37:38;;;;;;;0.20;0.20;;;16.20;99.90;;;;;;4950434;28;20503;-81
2023/07/18 05:40:05;;;;;;;0.10;0.10;;;16.20;99.90;;;;;;4949582;28;20051;-81
2023/07/18 05:42:31;;;;;;;0.20;0.20;;;16.30;99.90;;;;;;4943347;28;20046;-81
2023/07/18 05:44:57;;;;;;;0.20;0.20;;;16.30;99.90;;;;;;4945928;28;20600;-83
2023/07/18 05:47:22;;;;;;;0.10;0.10;;;16.30;99.90;;;;;;4946961;28;20483;-83
2023/07/18 05:49:48;;;;;;;0.10;0.10;;;16.40;99.90;;;;;;4947705;28;20047;-84
2023/07/18 05:52:14;;;;;;;0.15;0.15;;;16.40;99.90;;;;;;4946919;28;20043;-84
2023/07/18 05:54:39;;;;;;;0.20;0.20;;;16.40;99.90;;;;;;4948302;28;20043;-84
2023/07/18 05:57:05;;;;;;;0.10;0.10;;;16.40;99.90;;;;;;4942883;28;20078;-84
2023/07/18 05:59:32;;;;;;;0.20;0.20;;;16.40;99.90;;;;;;4943710;28;20127;-85
2023/07/18 06:01:59;;;;;;;0.20;0.20;;;16.40;99.90;;;;;;4958591;28;20094;-84
2023/07/18 06:04:25;;;;;;;0.20;0.20;;;16.40;99.90;;;;;;4957617;28;20082;-85
2023/07/18 06:06:50;;;;;;;0.20;0.20;;;16.40;99.90;;;;;;4944677;28;20554;-84
2023/07/18 06:09:16;;;;;;;0.20;0.20;;;16.40;99.90;;;;;;4941689;28;20078;-84
2023/07/18 06:11:42;;;;;;;0.20;0.20;;;16.50;99.90;;;;;;4945149;28;20035;-83
2023/07/18 06:14:08;;;;;;;0.20;0.20;;;16.50;99.90;;;;;;4942619;28;20035;-84
2023/07/18 06:16:34;;;;;;;0.20;0.20;;;16.50;99.90;;;;;;4957257;28;20491;-84
2023/07/18 06:18:59;;;;;;;0.20;0.20;;;16.50;99.90;;;;;;4943581;28;20050;-83
2023/07/18 06:21:26;;;;;;;0.20;0.20;;;16.50;99.90;;;;;;4943575;28;20055;-84
2023/07/18 06:23:56;;;;;;;0.20;0.20;;;16.60;99.90;;;;;;4944340;28;20536;-82
2023/07/18 06:26:22;;;;;;;0.20;0.20;;;16.60;99.90;;;;;;4944623;28;20178;-83
2023/07/18 06:28:49;;;;;;;0.20;0.20;;;16.60;99.90;;;;;;4941330;29;20077;-82
2023/07/18 06:31:15;;;;;;;0.20;0.20;;;16.60;99.90;;;;;;4961051;28;20102;-83
2023/07/18 06:33:41;;;;;;;0.20;0.20;;;16.60;99.90;;;;;;4948537;28;20035;-83
2023/07/18 06:36:06;;;;;;;0.10;0.10;;;16.60;99.90;;;;;;4952328;28;20546;-83
2023/07/18 06:38:32;;;;;;;0.20;0.20;;;16.70;99.90;;;;;;4951487;28;20042;-83
2023/07/18 06:40:58;;;;;;;0.10;0.10;;;16.70;99.90;;;;;;4962554;28;20376;-81
2023/07/18 06:43:24;;;;;;;0.20;0.20;;;16.70;99.90;;;;;;4952020;28;20058;-82
2023/07/18 06:45:50;;;;;;;0.20;0.20;;;16.80;99.90;;;;;;4967054;28;20130;-82
2023/07/18 06:48:16;;;;;;;0.20;0.20;;;16.90;99.90;;;;;;4954750;28;20043;-83
2023/07/18 06:50:51;;;;;;;0.20;0.20;;;17.00;99.90;;;;;;4954043;29;20036;-83
2023/07/18 06:53:18;;;;;;;0.20;0.20;;;17.10;99.90;;;;;;4954271;29;20546;-84
2023/07/18 06:55:51;;;;;;;0.10;0.10;;;17.10;99.90;;;;;;4965486;28;20454;-83
2023/07/18 06:58:17;;;;;;;0.10;0.10;;;17.20;99.90;;;;;;4962201;28;20055;-83
2023/07/18 07:00:44;;;;;;;0.10;0.10;;;17.20;99.90;;;;;;4954664;28;20044;-83
2023/07/18 07:03:10;;;;;;;0.20;0.20;;;17.30;99.90;;;;;;4953664;29;20051;-84
2023/07/18 07:05:43;;;;;;;0.20;0.20;;;17.30;99.90;;;;;;4970145;28;20050;-83
2023/07/18 07:08:12;;;;;;;0.10;0.10;;;17.40;99.90;;;;;;4952390;28;20050;-83
2023/07/18 07:10:42;;;;;;;0.13;0.13;;;17.50;99.90;;;;;;4952655;28;20398;-83
2023/07/18 07:13:09;;;;;;;0.10;0.10;;;17.50;99.90;;;;;;4956721;28;20440;-83
2023/07/18 07:15:35;;;;;;;0.10;0.10;;;17.60;99.90;;;;;;4954082;28;20063;-83
2023/07/18 07:18:05;;;;;;;0.20;0.20;;;17.60;99.90;;;;;;4949862;28;20055;-83
2023/07/18 07:20:32;;;;;;;0.20;0.20;;;17.60;99.90;;;;;;4956160;28;20054;-82
2023/07/18 07:22:58;;;;;;;0.17;0.17;;;17.60;99.90;;;;;;4955599;28;20099;-84
2023/07/18 07:25:29;;;;;;;0.10;0.10;;;17.70;99.90;;;;;;4941599;29;20546;-82
2023/07/18 07:27:56;;;;;;;0.20;0.20;;;17.70;99.90;;;;;;4944529;29;20082;-82
2023/07/18 07:30:22;;;;;;;0.10;0.10;;;17.80;99.90;;;;;;4944401;29;20051;-82
2023/07/18 07:32:51;;;;;;;0.20;0.20;;;17.80;99.90;;;;;;4943304;28;20545;-82
2023/07/18 07:35:18;;;;;;;0.20;0.20;;;17.90;99.90;;;;;;4959084;29;20043;-83
2023/07/18 07:37:44;;;;;;;0.10;0.10;;;18.00;99.90;;;;;;4944793;29;20130;-83
2023/07/18 07:40:11;;;;;;;0.10;0.10;;;18.10;99.90;;;;;;4952835;29;20054;-83
2023/07/18 07:42:38;;;;;;;0.20;0.20;;;18.20;99.90;;;;;;4944834;28;20051;-83
2023/07/18 07:45:05;;;;;;;0.10;0.10;;;18.30;99.90;;;;;;4952462;28;20039;-83
2023/07/18 07:47:30;;;;;;;0.10;0.10;;;18.40;99.90;;;;;;4955205;28;20043;-83
2023/07/18 07:49:56;;;;;;;0.20;0.20;;;18.50;99.90;;;;;;4952552;29;20392;-83
2023/07/18 07:52:22;;;;;;;0.20;0.20;;;18.50;99.90;;;;;;4938884;28;20066;-82
2023/07/18 07:54:48;;;;;;;0.10;0.10;;;18.50;99.90;;;;;;4935462;28;20053;-83
2023/07/18 07:57:14;;;;;;;0.20;0.20;;;18.60;99.90;;;;;;4956518;28;20511;-83
2023/07/18 07:59:40;;;;;;;0.20;0.20;;;18.60;99.90;;;;;;4938761;28;20341;-82
2023/07/18 08:02:06;;;;;;;0.20;0.20;;;18.70;99.90;;;;;;4938734;28;20536;-84
2023/07/18 08:04:32;;;;;;;0.20;0.20;;;18.70;99.90;;;;;;4937476;29;20114;-83
2023/07/18 08:06:58;;;;;;;0.20;0.20;;;18.70;99.90;;;;;;4943489;28;20058;-84
2023/07/18 08:09:23;;;;;;;0.10;0.10;;;18.80;99.90;;;;;;4953950;29;20098;-83
2023/07/18 08:11:50;;;;;;;0.10;0.10;;;18.90;99.90;;;;;;4960280;28;20035;-83
2023/07/18 08:14:17;;;;;;;0.20;0.20;;;18.90;99.90;;;;;;4950061;29;20046;-83
2023/07/18 08:16:43;;;;;;;0.20;0.20;;;19.00;99.90;;;;;;4932273;29;20043;-83
2023/07/18 08:19:09;;;;;;;0.20;0.20;;;19.10;99.90;;;;;;4951428;28;20039;-83
2023/07/18 08:21:35;;;;;;;0.20;0.20;;;19.10;99.90;;;;;;4935452;29;20058;-83
2023/07/18 08:24:01;;;;;;;0.20;0.20;;;19.20;99.90;;;;;;4939224;29;20043;-83
2023/07/18 08:26:27;;;;;;;0.20;0.20;;;19.30;99.90;;;;;;4953674;29;20039;-80
2023/07/18 08:28:52;;;;;;;0.20;0.20;;;19.40;99.90;;;;;;4934577;28;20048;-81
2023/07/18 08:31:19;;;;;;;0.20;0.20;;;19.40;99.90;;;;;;4944326;29;20399;-82
2023/07/18 08:33:45;;;;;;;0.20;0.20;;;19.40;99.90;;;;;;4952006;29;20062;-83
2023/07/18 08:36:11;;;;;;;0.15;0.15;;;19.40;99.90;;;;;;4956213;28;20043;-84
2023/07/18 08:38:37;;;;;;;0.10;0.10;;;19.50;99.90;;;;;;4935301;29;20054;-81
2023/07/18 08:41:03;;;;;;;0.10;0.10;;;19.50;99.90;;;;;;4933949;29;20062;-82
2023/07/18 08:43:33;;;;;;;0.17;0.17;;;19.60;99.90;;;;;;4952858;29;20052;-83
2023/07/18 08:45:59;;;;;;;0.20;0.20;;;19.60;99.90;;;;;;4951502;29;20047;-82
2023/07/18 08:48:25;;;;;;;0.20;0.20;;;19.70;99.90;;;;;;4951432;29;20357;-82
2023/07/18 08:50:53;;;;;;;0.13;0.13;;;19.80;99.90;;;;;;4936058;29;20051;-82
2023/07/18 08:53:20;;;;;;;0.20;0.20;;;19.90;99.90;;;;;;4951915;28;20147;-81
2023/07/18 08:55:46;;;;;;;0.20;0.20;;;20.00;99.90;;;;;;4933852;29;20450;-82
2023/07/18 08:58:12;;;;;;;0.20;0.20;;;20.10;99.90;;;;;;4935376;29;20407;-81
2023/07/18 09:00:38;;;;;;;0.10;0.10;;;20.20;99.90;;;;;;4936801;29;20047;-81
2023/07/18 09:03:04;;;;;;;0.20;0.20;;;20.30;99.90;;;;;;4947949;29;20019;-82
2023/07/18 09:05:34;;;;;;;0.10;0.10;;;20.50;99.90;;;;;;4939265;29;20126;-82
2023/07/18 09:08:02;;;;;;;0.20;0.20;;;20.50;99.90;;;;;;4934120;29;20126;-83
2023/07/18 09:10:28;;;;;;;0.20;0.20;;;20.60;99.90;;;;;;4935627;29;20130;-82
2023/07/18 09:12:54;;;;;;;0.10;0.10;;;20.60;99.90;;;;;;4950430;28;20142;-81
2023/07/18 09:15:33;;;;;;;0.20;0.20;;;20.70;99.90;;;;;;5124186;27;20400;-81
2023/07/18 09:18:01;;;;;;;0.20;0.20;;;20.80;99.90;;;;;;5095101;28;20082;-80
2023/07/18 09:20:29;;;;;;;0.20;0.20;;;20.80;99.90;;;;;;5114933;28;20290;-79
2023/07/18 09:22:59;;;;;;;0.20;0.20;;;20.90;99.90;;;;;;5106861;28;20050;-81
2023/07/18 09:25:26;;;;;;;0.20;0.20;;;20.90;99.90;;;;;;5095109;28;20040;-82
2023/07/18 09:27:56;;;;;;;0.20;0.20;;;21.00;99.90;;;;;;5099749;28;20050;-80
2023/07/18 09:30:34;;;;;;;0.20;0.20;;;21.00;99.90;;;;;;5097989;28;20566;-80
2023/07/18 09:33:02;;;;;;;0.20;0.20;;;21.00;99.90;;;;;;5098428;28;20562;-80
2023/07/18 09:35:28;;;;;;;0.20;0.20;;;21.00;99.90;;;;;;5099404;28;20444;-80
2023/07/18 09:37:55;;;;;;;0.20;0.20;;;21.00;99.90;;;;;;5096523;28;20068;-81
2023/07/18 09:40:20;;;;;;;0.20;0.20;;;21.10;99.90;;;;;;5086018;28;20496;-81
2023/07/18 09:42:49;;;;;;;0.20;0.20;;;21.20;99.90;;;;;;5085690;28;20085;-80
2023/07/18 09:45:16;;;;;;;0.10;0.10;;;21.30;99.90;;;;;;5103226;28;20122;-82
2023/07/18 09:47:42;;;;;;;0.20;0.20;;;21.40;99.90;;;;;;5101299;28;20047;-81
2023/07/18 09:50:13;;;;;;;0.20;0.20;;;21.40;99.90;;;;;;5091328;28;20048;-81
2023/07/18 09:52:46;;;;;;;0.20;0.20;;;21.50;99.90;;;;;;5097064;28;20051;-82
2023/07/18 09:55:14;;;;;;;0.20;0.20;;;21.60;99.90;;;;;;5103736;28;20062;-80
2023/07/18 09:57:41;;;;;;;0.20;0.20;;;21.70;99.90;;;;;;5090627;28;20035;-80
2023/07/18 10:00:11;;;;;;;0.20;0.20;;;21.70;99.90;;;;;;5096085;28;20063;-81
2023/07/18 10:02:37;;;;;;;0.20;0.20;;;21.80;99.90;;;;;;5095407;28;20488;-81
2023/07/18 10:05:04;;;;;;;0.20;0.20;;;21.80;99.90;;;;;;5096725;28;20433;-80
2023/07/18 10:07:35;;;;;;;0.20;0.20;;;21.80;99.90;;;;;;5095945;28;20051;-80
2023/07/18 10:10:03;;;;;;;0.20;0.20;;;21.70;99.90;;;;;;5091143;28;20035;-81
2023/07/18 10:12:35;;;;;;;0.17;0.17;;;21.60;99.90;;;;;;5103331;28;20090;-80
2023/07/18 10:15:03;;;;;;;0.20;0.20;;;21.60;99.90;;;;;;5133960;27;20060;-81
2023/07/18 10:17:40;;;;;;;0.20;0.20;;;21.50;99.90;;;;;;5132123;27;20039;-81
2023/07/18 10:20:11;;;;;;;0.20;0.20;;;21.40;99.90;;;;;;5090095;28;20067;-80
2023/07/18 10:22:44;;;;;;;;;;;21.30;99.90;;;;;;5103210;28;20501;-81
2023/07/18 10:25:11;;;;;;;0.20;0.20;;;21.30;99.90;;;;;;5096155;28;20445;-81
2023/07/18 10:27:41;;;;;;;0.20;0.20;;;21.20;99.90;;;;;;5079156;28;20055;-80
2023/07/18 10:30:10;;;;;;;0.20;0.20;;;21.20;99.90;;;;;;5078265;28;20044;-80
2023/07/18 10:32:41;;;;;;;0.20;0.20;;;21.20;99.90;;;;;;5116220;27;20359;-80
2023/07/18 10:35:12;;;;;;;0.20;0.20;;;21.20;99.90;;;;;;5071390;28;20081;-80
2023/07/18 10:37:43;;;;;;;0.20;0.20;;;21.20;99.90;;;;;;5087042;28;20075;-80
2023/07/18 10:40:10;;;;;;;0.20;0.20;;;21.10;99.90;;;;;;5088636;28;20055;-81
2023/07/18 10:42:36;;;;;;;0.20;0.20;;;21.10;99.90;;;;;;5117210;27;20488;-80
2023/07/18 10:45:06;;;;;;;0.20;0.20;;;21.10;99.90;;;;;;5081823;28;20064;-80
2023/07/18 10:47:37;;;;;;;0.20;0.20;;;21.10;99.90;;;;;;5109066;27;20049;-81
2023/07/18 10:50:04;;;;;;;0.20;0.20;;;21.00;99.90;;;;;;5076409;28;20055;-80
2023/07/18 10:52:30;;;;;;;0.20;0.20;;;21.00;99.90;;;;;;5085762;28;20066;-80
2023/07/18 10:54:58;;;;;;;0.10;0.10;;;20.90;99.90;;;;;;5074488;28;20441;-80
2023/07/18 10:57:28;;;;;;;0.20;0.20;;;20.90;99.90;;;;;;5079775;28;20036;-80
2023/07/18 10:59:54;;;;;;;0.17;0.17;;;21.00;99.90;;;;;;5079444;28;20040;-81
2023/07/18 11:02:20;;;;;;;0.20;0.20;;;21.00;99.90;;;;;;5073730;28;20120;-81
2023/07/18 11:04:47;;;;;;;0.20;0.20;;;21.00;99.90;;;;;;5074692;28;20070;-80
2023/07/18 11:07:13;;;;;;;0.20;0.20;;;21.10;99.90;;;;;;5087141;28;20052;-81
2023/07/18 11:09:41;;;;;;;0.10;0.10;;;21.10;99.90;;;;;;5088214;28;20036;-81
2023/07/18 11:12:15;;;;;;;0.20;0.20;;;21.10;99.90;;;;;;5121422;27;20048;-82
2023/07/18 11:14:41;;;;;;;0.10;0.10;;;21.20;99.90;;;;;;5087822;28;20086;-81
2023/07/18 11:17:18;;;;;;;0.20;0.20;;;21.40;99.90;;;;;;5082422;28;20086;-81
2023/07/18 11:19:45;;;;;;;0.17;0.17;;;21.50;99.90;;;;;;5113550;27;20044;-81
2023/07/18 11:22:15;;;;;;;0.20;0.20;;;21.70;99.90;;;;;;5078191;28;20046;-83
2023/07/18 11:24:43;;;;;;;0.20;0.20;;;21.90;99.90;;;;;;5081320;28;20067;-80
2023/07/18 11:27:21;;;;;;;0.20;0.20;;;22.00;99.90;;;;;;5073317;28;20043;-82
2023/07/18 11:29:56;;;;;;;0.20;0.20;;;22.10;99.90;;;;;;5110008;27;20089;-81
2023/07/18 11:32:45;;;;;;;0.10;0.10;;;22.20;99.90;;;;;;5070205;28;20053;-82
2023/07/18 11:35:22;;;;;;;0.20;0.20;;;22.30;99.90;;;;;;5123090;27;20126;-81
2023/07/18 11:37:53;;;;;;;0.20;0.20;;;22.40;99.90;;;;;;5073735;28;20040;-82
2023/07/18 11:40:25;;;;;;;0.20;0.20;;;22.40;99.90;;;;;;5079825;28;20040;-82
2023/07/18 11:42:57;;;;;;;0.20;0.20;;;22.50;99.90;;;;;;5071364;28;20048;-81
2023/07/18 11:45:25;;;;;;;0.20;0.20;;;22.70;99.90;;;;;;5078120;28;20082;-82
2023/07/18 11:47:59;;;;;;;0.20;0.20;;;22.90;99.90;;;;;;5076755;28;20492;-82
2023/07/18 11:50:29;;;;;;;0.20;0.20;;;23.10;99.90;;;;;;5080976;28;20040;-80
2023/07/18 11:52:59;;;;;;;0.20;0.20;;;23.30;99.90;;;;;;5076133;28;20488;-81
2023/07/18 11:55:25;;;;;;;0.20;0.20;;;23.60;99.90;;;;;;5089368;28;20036;-81
2023/07/18 11:57:51;;;;;;;0.20;0.20;;;23.70;98.90;;;;;;5088362;28;20040;-82
2023/07/18 12:00:17;;;;;;;0.20;0.20;;;23.70;98.50;;;;;;5092117;28;20090;-82
2023/07/18 12:02:44;;;;;;;0.20;0.20;;;23.70;98.10;;;;;;5082178;28;20090;-82
2023/07/18 12:05:10;;;;;;;0.20;0.20;;;23.70;98.40;;;;;;5074181;28;20032;-82
2023/07/18 12:07:36;;;;;;;0.20;0.20;;;23.70;98.30;;;;;;5071372;28;20052;-82
2023/07/18 12:10:06;;;;;;;0.20;0.20;;;23.60;98.40;;;;;;5074887;28;20051;-81
2023/07/18 12:12:33;;;;;;;0.28;0.28;;;23.60;98.40;;;;;;5088233;28;20047;-79
2023/07/18 12:14:59;;;;;;;0.20;0.20;;;23.60;98.10;;;;;;5086346;28;20531;-80
2023/07/18 12:17:26;;;;;;;0.20;0.20;;;23.50;98.10;;;;;;5121919;27;20095;-81
2023/07/18 12:19:51;;;;;;;0.20;0.20;;;23.40;97.90;;;;;;5083914;28;20491;-82
2023/07/18 12:22:18;;;;;;;0.20;0.20;;;23.20;97.90;;;;;;5087918;28;20047;-81
2023/07/18 12:24:44;;;;;;;0.20;0.20;;;23.10;98.00;;;;;;5089049;28;20460;-80
2023/07/18 12:27:12;;;;;;;0.20;0.20;;;22.90;97.90;;;;;;5087342;28;20038;-80
2023/07/18 12:29:38;;;;;;;0.20;0.20;;;22.80;97.80;;;;;;5088147;28;20044;-79
2023/07/18 12:32:04;;;;;;;0.10;0.10;;;22.60;97.90;;;;;;5086731;28;20032;-79
2023/07/18 12:34:30;;;;;;;0.20;0.20;;;22.50;98.20;;;;;;5084718;28;20080;-80
2023/07/18 12:36:56;;;;;;;0.10;0.10;;;22.40;98.50;;;;;;5086804;28;20086;-77
2023/07/18 12:39:22;;;;;;;0.20;0.20;;;22.30;98.50;;;;;;5089075;28;20060;-79
2023/07/18 12:41:49;;;;;;;0.20;0.20;;;22.30;98.40;;;;;;5082155;28;20395;-78
2023/07/18 12:44:19;;;;;;;0.20;0.20;;;22.20;98.50;;;;;;5081870;28;20563;-78
2023/07/18 12:46:48;;;;;;;0.20;0.20;;;22.10;98.70;;;;;;5083873;28;20048;-79
2023/07/18 12:49:14;;;;;;;0.20;0.20;;;22.10;98.90;;;;;;5112212;27;21298;-78